Time;durP1;ratioP1;P1;durP2;ratioP2;P2;SDS_P1;SDS_P2;PMS_P1;PMS_P2;Temp;Humidity;BMP_temperature;BMP_pressure;BME280_temperature;BME280_humidity;BME280_pressure;Samples;Min_cycle;Max_cycle;Signal;HPM_P1;HPM_P2
2022/12/06 00:01:17;;;;;;;3.70;3.33;;;17.50;64.00;;;;;;4992758;28;20192;-71
2022/12/06 00:03:45;;;;;;;3.35;2.97;;;17.50;63.90;;;;;;4992856;28;20189;-71
2022/12/06 00:06:15;;;;;;;3.40;3.10;;;17.50;64.70;;;;;;4992936;28;20287;-71
2022/12/06 00:08:42;;;;;;;3.35;3.05;;;17.50;63.90;;;;;;4992327;28;20181;-71
2022/12/06 00:11:15;;;;;;;3.40;3.10;;;17.50;64.00;;;;;;4976312;28;20188;-70
2022/12/06 00:13:41;;;;;;;2.78;2.58;;;17.50;64.00;;;;;;4992481;28;20217;-71
2022/12/06 00:16:11;;;;;;;2.83;2.60;;;17.50;63.90;;;;;;4992559;28;20281;-71
2022/12/06 00:18:40;;;;;;;3.03;2.83;;;17.50;63.90;;;;;;4986051;28;20853;-70
2022/12/06 00:21:10;;;;;;;2.72;2.53;;;17.50;63.90;;;;;;4989163;28;20174;-70
2022/12/06 00:23:44;;;;;;;3.17;2.88;;;17.50;63.90;;;;;;4989656;28;20237;-71
2022/12/06 00:26:11;;;;;;;2.90;2.60;;;17.50;63.90;;;;;;4974068;28;20197;-71
2022/12/06 00:28:38;;;;;;;2.80;2.45;;;17.50;63.80;;;;;;4988845;28;20292;-71
2022/12/06 00:31:08;;;;;;;3.25;2.95;;;17.50;63.70;;;;;;4973045;28;20213;-71
2022/12/06 00:33:36;;;;;;;3.30;3.00;;;17.50;63.70;;;;;;4972613;28;20232;-71
2022/12/06 00:36:06;;;;;;;2.97;2.47;;;17.50;63.80;;;;;;4988748;28;20626;-71
2022/12/06 00:38:36;;;;;;;2.95;2.65;;;17.50;63.70;;;;;;4972680;28;20213;-71
2022/12/06 00:41:06;;;;;;;3.65;2.40;;;17.50;63.70;;;;;;4972380;28;20177;-71
2022/12/06 00:43:33;;;;;;;2.78;2.58;;;17.50;63.70;;;;;;4988751;28;20214;-71
2022/12/06 00:46:00;;;;;;;2.70;2.50;;;17.50;63.70;;;;;;4956340;28;20185;-70
2022/12/06 00:48:27;;;;;;;2.97;2.70;;;17.50;63.70;;;;;;4972048;28;20225;-71
2022/12/06 00:50:53;;;;;;;3.40;3.03;;;17.50;63.60;;;;;;4991726;28;20211;-71
2022/12/06 00:53:21;;;;;;;3.13;2.58;;;17.50;63.60;;;;;;4975754;28;20219;-71
2022/12/06 00:55:47;;;;;;;2.40;2.20;;;17.50;63.60;;;;;;4975676;28;20231;-71
2022/12/06 00:58:14;;;;;;;2.63;2.42;;;17.50;63.60;;;;;;4975430;28;20187;-71
2022/12/06 01:00:40;;;;;;;3.33;2.70;;;17.50;63.50;;;;;;4991371;28;20185;-70
2022/12/06 01:03:07;;;;;;;2.70;2.50;;;17.50;63.50;;;;;;4992979;28;20675;-70
2022/12/06 01:05:33;;;;;;;2.67;2.47;;;17.50;63.50;;;;;;5007954;28;20189;-71
2022/12/06 01:07:59;;;;;;;2.83;2.63;;;17.50;63.50;;;;;;4991486;28;20185;-71
2022/12/06 01:10:25;;;;;;;3.00;2.70;;;17.50;63.40;;;;;;4974930;28;20224;-71
2022/12/06 01:12:51;;;;;;;4.20;2.60;;;17.50;63.40;;;;;;4991327;28;20213;-71
2022/12/06 01:15:16;;;;;;;2.85;2.33;;;17.50;63.40;;;;;;4991414;28;20193;-71
2022/12/06 01:17:43;;;;;;;2.67;2.47;;;17.50;63.50;;;;;;4975155;28;20280;-71
2022/12/06 01:20:09;;;;;;;2.60;2.40;;;17.50;63.40;;;;;;5007588;28;20184;-70
2022/12/06 01:22:35;;;;;;;2.72;2.53;;;17.50;63.40;;;;;;4974847;28;20208;-71
2022/12/06 01:25:01;;;;;;;3.05;2.70;;;17.50;63.40;;;;;;4991247;28;20185;-71
2022/12/06 01:27:26;;;;;;;2.30;2.10;;;17.50;63.40;;;;;;4979371;28;20224;-71
2022/12/06 01:29:52;;;;;;;2.53;2.33;;;17.50;63.40;;;;;;4972276;28;20192;-71
2022/12/06 01:32:18;;;;;;;2.42;2.22;;;17.50;63.30;;;;;;4974750;28;20263;-70
2022/12/06 01:34:44;;;;;;;2.83;2.20;;;17.50;63.30;;;;;;4974841;28;20225;-71
2022/12/06 01:37:10;;;;;;;2.42;2.22;;;17.50;63.40;;;;;;4991050;28;20211;-71
2022/12/06 01:39:37;;;;;;;2.25;2.05;;;17.50;63.40;;;;;;4990586;28;20185;-71
2022/12/06 01:42:03;;;;;;;2.40;2.22;;;17.50;63.40;;;;;;4990870;28;20192;-70
2022/12/06 01:44:50;;;;;;;2.70;2.50;;;17.50;63.40;;;;;;4990849;28;20192;-70
2022/12/06 01:47:27;;;;;;;2.45;2.25;;;17.50;63.30;;;;;;4990963;28;20203;-71
2022/12/06 01:50:15;;;;;;;2.60;2.40;;;17.50;63.30;;;;;;4990604;28;20196;-71
2022/12/06 01:53:07;;;;;;;2.60;2.40;;;17.50;63.30;;;;;;4988368;28;20349;-71
2022/12/06 01:55:37;;;;;;;2.40;2.20;;;17.50;63.30;;;;;;4970660;28;20260;-71
2022/12/06 01:58:16;;;;;;;2.70;2.50;;;17.50;63.30;;;;;;4982866;28;20196;-71
2022/12/06 02:00:43;;;;;;;2.28;2.08;;;17.50;63.20;;;;;;4990308;28;20189;-71
2022/12/06 02:03:18;;;;;;;2.38;2.17;;;17.50;63.20;;;;;;4990470;28;20255;-71
2022/12/06 02:05:44;;;;;;;1.92;1.83;;;17.50;63.30;;;;;;4990829;28;20235;-71
2022/12/06 02:08:12;;;;;;;2.30;2.10;;;17.50;63.20;;;;;;4992152;28;20275;-71
2022/12/06 02:10:38;;;;;;;2.30;2.10;;;17.50;63.10;;;;;;4990123;28;20196;-71
2022/12/06 02:13:06;;;;;;;2.28;2.08;;;17.50;63.20;;;;;;4990468;28;20236;-71
2022/12/06 02:15:57;;;;;;;2.20;2.00;;;17.50;63.10;;;;;;4991669;28;20189;-70
2022/12/06 02:18:47;;;;;;;3.15;2.10;;;17.50;63.00;;;;;;4986346;28;20220;-71
2022/12/06 02:21:35;;;;;;;2.40;1.98;;;17.50;63.10;;;;;;4965109;28;20305;-71
2022/12/06 02:24:33;;;;;;;2.30;2.10;;;17.50;63.10;;;;;;4971017;28;20198;-71
2022/12/06 02:27:43;;;;;;;2.10;1.90;;;17.50;63.00;;;;;;4971253;28;20212;-70
2022/12/06 02:31:10;;;;;;;2.40;2.20;;;17.50;63.10;;;;;;4954549;28;20189;-70
2022/12/06 02:33:58;;;;;;;2.10;2.00;;;17.50;63.10;;;;;;4951908;28;20607;-70
2022/12/06 02:36:37;;;;;;;2.30;2.10;;;17.50;63.00;;;;;;4970942;28;20556;-70
2022/12/06 02:39:17;;;;;;;2.00;1.83;;;17.50;63.00;;;;;;4970886;28;20341;-71
2022/12/06 02:42:15;;;;;;;2.65;1.73;;;17.50;63.00;;;;;;4972208;28;20308;-71
2022/12/06 02:44:55;;;;;;;2.30;2.10;;;17.50;63.00;;;;;;4974657;28;20224;-71
2022/12/06 02:47:29;;;;;;;2.28;2.08;;;17.50;63.00;;;;;;4975074;28;20181;-71
2022/12/06 02:49:58;;;;;;;1.70;1.60;;;17.50;63.00;;;;;;4974308;28;20181;-71
2022/12/06 02:52:27;;;;;;;2.28;2.00;;;17.50;62.90;;;;;;4974508;28;20212;-71
2022/12/06 02:54:57;;;;;;;1.73;1.63;;;17.50;62.90;;;;;;4958227;28;20241;-71
2022/12/06 02:57:44;;;;;;;1.98;1.85;;;17.50;62.90;;;;;;4974447;28;20186;-71
2022/12/06 03:00:37;;;;;;;2.30;2.10;;;17.50;62.80;;;;;;4974093;28;20205;-71
2022/12/06 03:03:42;;;;;;;1.80;1.70;;;17.50;62.70;;;;;;4974261;28;20205;-71
2022/12/06 03:06:35;;;;;;;1.80;1.70;;;17.50;62.80;;;;;;4975659;28;20433;-71
2022/12/06 03:09:51;;;;;;;1.67;1.58;;;17.50;62.80;;;;;;4973872;28;20229;-71
2022/12/06 03:12:34;;;;;;;2.10;1.90;;;17.40;62.70;;;;;;4963431;28;20217;-71
2022/12/06 03:15:18;;;;;;;1.52;1.42;;;17.50;63.60;;;;;;4974195;28;20214;-71
2022/12/06 03:17:55;;;;;;;1.70;1.60;;;17.40;62.70;;;;;;4973994;28;20601;-71
2022/12/06 03:20:41;;;;;;;1.55;1.45;;;17.50;62.80;;;;;;4982382;28;20195;-71
2022/12/06 03:23:15;;;;;;;1.90;1.80;;;17.50;62.90;;;;;;4987590;28;20209;-71
2022/12/06 03:25:43;;;;;;;1.67;1.58;;;17.50;62.70;;;;;;4977155;28;20196;-71
2022/12/06 03:28:15;;;;;;;1.98;1.85;;;17.50;62.70;;;;;;4992902;28;20281;-71
2022/12/06 03:30:50;;;;;;;1.63;1.50;;;17.40;62.50;;;;;;4975870;28;20687;-71
2022/12/06 03:33:21;;;;;;;1.60;1.50;;;17.50;62.60;;;;;;5023582;22;20242;-70
2022/12/06 03:35:51;;;;;;;1.80;1.70;;;17.40;62.40;;;;;;5030454;28;20176;-70
2022/12/06 03:38:35;;;;;;;1.60;1.50;;;17.50;62.70;;;;;;5014417;28;20183;-69
2022/12/06 03:41:05;;;;;;;1.75;1.65;;;17.40;62.60;;;;;;5014179;28;20342;-70
2022/12/06 03:43:32;;;;;;;1.70;1.60;;;17.50;62.60;;;;;;5013766;28;20212;-70
2022/12/06 03:46:21;;;;;;;1.80;1.70;;;17.50;62.60;;;;;;4997779;28;20191;-70
2022/12/06 03:49:06;;;;;;;1.60;1.50;;;17.40;62.50;;;;;;5013956;28;20213;-69
2022/12/06 03:51:36;;;;;;;1.73;1.63;;;17.50;62.50;;;;;;5013914;28;20183;-70
2022/12/06 03:54:06;;;;;;;2.67;2.00;;;17.50;63.40;;;;;;5013412;28;20223;-70
2022/12/06 03:56:35;;;;;;;1.40;1.30;;;17.40;62.20;;;;;;5013600;28;20220;-70
2022/12/06 03:59:10;;;;;;;1.63;1.50;;;17.50;62.40;;;;;;5029970;28;20212;-70
2022/12/06 04:01:37;;;;;;;1.77;1.65;;;17.40;62.30;;;;;;4997256;28;20183;-70
2022/12/06 04:04:04;;;;;;;1.85;1.65;;;17.50;62.40;;;;;;5013379;28;20204;-70
2022/12/06 04:06:30;;;;;;;1.70;1.60;;;17.50;62.50;;;;;;5013673;28;20192;-70
2022/12/06 04:09:51;;;;;;;1.63;1.52;;;17.50;62.40;;;;;;4997160;28;20206;-70
2022/12/06 04:11:41;;;;;;;1.60;1.50;;;17.40;62.40;;;;;;5014465;28;20203;-70
2022/12/06 04:14:07;;;;;;;1.65;1.55;;;17.50;62.40;;;;;;4997032;28;20588;-68
2022/12/06 04:19:17;;;;;;;2.17;1.50;;;17.50;62.30;;;;;;5013023;28;20239;-70
2022/12/06 04:24:26;;;;;;;1.77;1.63;;;17.50;62.20;;;;;;5013027;28;20222;-70
2022/12/06 04:28:40;;;;;;;2.67;1.70;;;17.40;62.10;;;;;;5014269;28;20180;-70
2022/12/06 04:40:35;;;;;;;1.50;1.40;;;17.40;62.10;;;;;;5012709;28;20188;-70
2022/12/06 04:45:45;;;;;;;1.50;1.35;;;17.50;62.20;;;;;;5012342;28;20258;-70
2022/12/06 04:48:13;;;;;;;1.52;1.42;;;17.40;62.10;;;;;;5012686;28;20180;-70
2022/12/06 04:50:39;;;;;;;1.50;1.40;;;17.40;62.10;;;;;;5012449;28;20196;-70
2022/12/06 04:53:05;;;;;;;1.42;1.33;;;17.40;62.10;;;;;;5012772;28;20214;-70
2022/12/06 04:55:31;;;;;;;1.55;1.45;;;17.40;62.10;;;;;;5013650;28;20191;-70
2022/12/06 04:57:56;;;;;;;1.75;1.63;;;17.40;62.10;;;;;;5012447;28;20191;-70
2022/12/06 05:00:22;;;;;;;1.90;1.80;;;17.50;62.20;;;;;;5012281;28;20191;-70
2022/12/06 05:02:48;;;;;;;1.65;1.55;;;17.40;62.10;;;;;;5012548;28;20301;-70
2022/12/06 05:05:14;;;;;;;1.80;1.70;;;17.50;62.20;;;;;;4995344;28;20199;-70
2022/12/06 05:07:39;;;;;;;1.80;1.70;;;17.50;62.20;;;;;;4995987;28;20302;-70
2022/12/06 05:10:06;;;;;;;1.63;1.40;;;17.40;62.10;;;;;;5012188;28;20192;-70
2022/12/06 05:12:32;;;;;;;1.60;1.50;;;17.40;62.10;;;;;;5012197;28;20548;-70
2022/12/06 05:14:58;;;;;;;1.50;1.40;;;17.40;62.10;;;;;;5028637;28;20212;-70
2022/12/06 05:17:23;;;;;;;1.33;1.23;;;17.40;62.10;;;;;;4996196;28;20187;-70
2022/12/06 05:19:49;;;;;;;2.67;1.60;;;17.50;62.20;;;;;;5012006;28;20234;-70
2022/12/06 05:22:15;;;;;;;1.20;1.10;;;17.40;62.10;;;;;;4995683;28;20190;-71
2022/12/06 05:24:40;;;;;;;1.80;1.70;;;17.40;62.00;;;;;;4995684;28;20208;-70
2022/12/06 05:27:06;;;;;;;1.85;1.50;;;17.40;62.00;;;;;;5013236;28;20173;-70
2022/12/06 05:29:32;;;;;;;1.40;1.30;;;17.40;62.10;;;;;;5013005;28;20176;-70
2022/12/06 05:31:57;;;;;;;1.65;1.55;;;17.40;62.00;;;;;;5008527;28;20197;-69
2022/12/06 05:34:23;;;;;;;1.60;1.50;;;17.40;61.90;;;;;;4992169;28;20217;-69
2022/12/06 05:36:49;;;;;;;1.40;1.30;;;17.40;62.00;;;;;;4992311;28;20180;-70
2022/12/06 05:39:15;;;;;;;1.63;1.52;;;17.50;62.00;;;;;;4975849;28;20208;-70
2022/12/06 05:41:41;;;;;;;1.60;1.50;;;17.50;62.00;;;;;;4993367;28;20666;-70
2022/12/06 05:44:11;;;;;;;1.40;1.30;;;17.40;62.00;;;;;;4992311;28;20252;-70
2022/12/06 05:46:36;;;;;;;1.60;1.50;;;17.40;61.90;;;;;;4992152;28;20189;-70
2022/12/06 05:49:02;;;;;;;1.85;1.75;;;17.40;61.90;;;;;;4991738;28;20210;-71
2022/12/06 05:51:28;;;;;;;1.60;1.50;;;17.40;61.90;;;;;;5011829;28;20192;-70
2022/12/06 05:53:53;;;;;;;1.73;1.63;;;17.40;61.90;;;;;;4994995;28;20587;-70
2022/12/06 05:56:19;;;;;;;1.63;1.52;;;17.40;61.90;;;;;;5011434;28;20188;-70
2022/12/06 05:58:45;;;;;;;1.58;1.42;;;17.40;62.00;;;;;;5011443;28;20184;-68
2022/12/06 06:01:11;;;;;;;1.45;1.35;;;17.40;61.90;;;;;;4995391;28;20195;-70
2022/12/06 06:03:37;;;;;;;1.60;1.50;;;17.40;61.90;;;;;;5011353;28;20200;-70
2022/12/06 06:06:03;;;;;;;1.40;1.30;;;17.40;61.90;;;;;;4995130;28;20196;-71
2022/12/06 06:08:30;;;;;;;1.50;1.40;;;17.50;62.00;;;;;;4995214;28;20226;-71
2022/12/06 06:10:57;;;;;;;1.38;1.30;;;17.40;61.90;;;;;;5011504;28;20208;-71
2022/12/06 06:13:23;;;;;;;1.40;1.27;;;17.40;62.00;;;;;;5011510;28;20255;-70
2022/12/06 06:15:49;;;;;;;1.60;1.50;;;17.40;62.00;;;;;;5013876;28;20192;-70
2022/12/06 06:18:16;;;;;;;1.45;1.35;;;17.40;61.80;;;;;;5017332;28;20222;-69
2022/12/06 06:20:48;;;;;;;1.42;1.33;;;17.40;61.80;;;;;;5017137;28;20187;-70
2022/12/06 06:23:13;;;;;;;1.70;1.60;;;17.40;61.80;;;;;;5017438;28;20207;-70
2022/12/06 06:25:39;;;;;;;1.40;1.30;;;17.40;61.80;;;;;;5017230;28;20238;-70
2022/12/06 06:28:05;;;;;;;1.60;1.50;;;17.40;61.90;;;;;;5017297;28;20184;-70
2022/12/06 06:30:31;;;;;;;1.88;1.67;;;17.40;61.90;;;;;;5000846;28;20710;-70
2022/12/06 06:32:56;;;;;;;2.30;2.10;;;17.40;61.90;;;;;;5017153;28;20344;-71
2022/12/06 06:35:22;;;;;;;2.35;1.30;;;17.40;61.80;;;;;;5017383;28;20192;-70
2022/12/06 06:37:48;;;;;;;2.78;1.60;;;17.40;61.80;;;;;;5017467;28;20173;-70
2022/12/06 06:40:14;;;;;;;1.70;1.60;;;17.40;61.70;;;;;;5000517;28;20191;-70
2022/12/06 06:42:40;;;;;;;1.40;1.30;;;17.40;61.70;;;;;;5017353;28;20207;-70
2022/12/06 06:45:06;;;;;;;1.45;1.30;;;17.40;61.80;;;;;;5000954;28;20195;-70
2022/12/06 06:47:32;;;;;;;1.70;1.30;;;17.40;61.80;;;;;;5017202;28;20180;-71
2022/12/06 06:49:58;;;;;;;1.60;1.50;;;17.40;61.80;;;;;;5000665;28;20198;-71
2022/12/06 06:52:24;;;;;;;1.40;1.30;;;17.40;61.80;;;;;;5017042;28;20196;-71
2022/12/06 06:54:49;;;;;;;1.60;1.50;;;17.40;61.90;;;;;;5018244;28;20207;-71
2022/12/06 06:57:15;;;;;;;1.50;1.40;;;17.40;61.80;;;;;;5017457;28;20194;-71
2022/12/06 06:59:41;;;;;;;1.70;1.60;;;17.40;61.80;;;;;;5018482;28;20377;-72
2022/12/06 07:02:13;;;;;;;1.55;1.45;;;17.40;61.90;;;;;;5018021;28;20168;-71
2022/12/06 07:04:39;;;;;;;1.73;1.63;;;17.40;61.80;;;;;;5015412;28;20622;-71
2022/12/06 07:07:05;;;;;;;1.60;1.45;;;17.40;61.80;;;;;;5000322;28;20191;-72
2022/12/06 07:09:31;;;;;;;2.30;1.63;;;17.40;61.80;;;;;;5016573;28;20188;-71
2022/12/06 07:11:57;;;;;;;1.40;1.30;;;17.40;61.80;;;;;;5018515;28;20582;-71
2022/12/06 07:14:22;;;;;;;1.80;1.63;;;17.40;61.70;;;;;;5016709;28;20228;-71
2022/12/06 07:16:48;;;;;;;2.17;1.50;;;17.40;61.70;;;;;;5017018;28;20191;-71
2022/12/06 07:19:14;;;;;;;2.13;1.90;;;17.40;61.70;;;;;;5016848;28;20203;-71
2022/12/06 07:21:39;;;;;;;2.53;1.80;;;17.40;61.70;;;;;;5016816;28;20240;-72
2022/12/06 07:24:06;;;;;;;1.67;1.52;;;17.40;61.70;;;;;;5017994;28;20210;-72
2022/12/06 07:26:32;;;;;;;2.22;1.73;;;17.40;61.70;;;;;;5016357;28;20195;-71
2022/12/06 07:28:59;;;;;;;1.90;1.77;;;17.40;61.70;;;;;;5012897;28;20246;-71
2022/12/06 07:31:28;;;;;;;1.83;1.73;;;17.40;61.70;;;;;;5014110;28;20196;-71
2022/12/06 07:33:58;;;;;;;2.08;1.83;;;17.40;61.70;;;;;;5010396;28;20214;-71
2022/12/06 07:36:27;;;;;;;2.72;1.95;;;17.40;61.60;;;;;;4996109;28;20272;-71
2022/12/06 07:38:56;;;;;;;1.80;1.70;;;17.40;61.70;;;;;;5013488;28;20184;-71
2022/12/06 07:47:03;;;;;;;2.67;2.47;;;17.40;61.70;;;;;;5013960;28;20215;-71
2022/12/06 07:49:30;;;;;;;3.10;2.25;;;17.40;61.70;;;;;;5009651;28;20284;-71
2022/12/06 07:51:57;;;;;;;3.08;2.28;;;17.40;61.60;;;;;;4977686;28;20192;-71
2022/12/06 07:54:23;;;;;;;3.08;2.67;;;17.40;61.60;;;;;;4993779;28;20291;-72
2022/12/06 07:56:49;;;;;;;4.25;2.60;;;17.40;61.60;;;;;;4977225;28;20189;-71
2022/12/06 07:59:15;;;;;;;3.05;2.60;;;17.40;61.70;;;;;;4977495;28;20192;-72
2022/12/06 08:01:42;;;;;;;3.65;2.85;;;17.40;61.60;;;;;;4977549;28;20272;-71
2022/12/06 08:04:08;;;;;;;2.97;2.63;;;17.40;61.70;;;;;;4977574;28;20205;-71
2022/12/06 08:06:34;;;;;;;2.47;2.28;;;17.40;61.60;;;;;;4993364;28;20213;-71
2022/12/06 08:09:00;;;;;;;2.42;2.22;;;17.40;61.60;;;;;;4993355;28;20243;-71
2022/12/06 08:11:27;;;;;;;2.58;2.38;;;17.40;61.60;;;;;;4993166;28;20196;-72
2022/12/06 08:13:53;;;;;;;2.97;2.28;;;17.40;61.70;;;;;;5009266;28;20239;-71
2022/12/06 08:16:19;;;;;;;2.50;2.30;;;17.40;61.70;;;;;;4977201;28;20609;-71
2022/12/06 08:18:44;;;;;;;2.60;2.40;;;17.40;61.60;;;;;;4977228;28;20699;-71
2022/12/06 08:21:10;;;;;;;2.58;2.28;;;17.40;61.60;;;;;;4978090;28;20195;-72
2022/12/06 08:23:36;;;;;;;2.65;2.30;;;17.40;61.60;;;;;;4977705;28;20209;-72
2022/12/06 08:26:12;;;;;;;2.63;2.42;;;17.40;61.70;;;;;;4976656;28;20204;-71
2022/12/06 08:28:39;;;;;;;2.67;2.47;;;17.40;61.60;;;;;;4992925;28;20206;-71
2022/12/06 08:31:12;;;;;;;2.75;2.40;;;17.40;61.60;;;;;;4992701;28;20189;-71
2022/12/06 08:33:39;;;;;;;2.75;2.40;;;17.50;61.70;;;;;;4992743;28;20236;-72
2022/12/06 08:36:15;;;;;;;2.63;2.42;;;17.40;61.50;;;;;;4992780;28;20200;-72
2022/12/06 08:38:41;;;;;;;2.80;2.35;;;17.40;61.60;;;;;;4992255;28;20185;-71
2022/12/06 08:41:54;;;;;;;2.80;2.55;;;17.40;61.60;;;;;;4992282;28;20177;-71
2022/12/06 08:43:56;;;;;;;2.83;2.60;;;17.40;61.50;;;;;;4993587;28;20219;-72
2022/12/06 08:46:23;;;;;;;2.42;2.22;;;17.40;61.60;;;;;;4992225;28;20196;-72
2022/12/06 08:48:48;;;;;;;2.60;2.40;;;17.50;61.60;;;;;;4976068;28;20208;-71
2022/12/06 08:51:14;;;;;;;2.92;2.25;;;17.50;61.70;;;;;;4976003;28;20656;-71
2022/12/06 08:53:40;;;;;;;2.65;2.40;;;17.40;61.50;;;;;;4992501;28;20221;-71
2022/12/06 08:56:07;;;;;;;2.95;2.75;;;17.50;61.70;;;;;;4992775;28;20189;-71
2022/12/06 08:58:33;;;;;;;3.85;2.63;;;17.50;61.70;;;;;;4992358;28;20209;-71
2022/12/06 09:00:58;;;;;;;3.10;2.70;;;17.50;61.60;;;;;;4975884;28;20227;-71
2022/12/06 09:03:24;;;;;;;2.90;2.70;;;17.50;61.60;;;;;;4976242;28;20205;-71
2022/12/06 09:05:50;;;;;;;3.95;3.05;;;17.50;61.70;;;;;;4993434;28;20212;-72
2022/12/06 09:08:15;;;;;;;3.03;2.65;;;17.50;61.70;;;;;;4976950;28;20203;-71
2022/12/06 09:10:42;;;;;;;2.60;2.28;;;17.50;61.70;;;;;;4991922;28;20201;-71
2022/12/06 09:13:08;;;;;;;2.55;2.35;;;17.50;61.70;;;;;;4975788;28;20204;-72
2022/12/06 09:15:34;;;;;;;2.78;2.47;;;17.40;61.70;;;;;;4992014;28;20184;-71
2022/12/06 09:18:00;;;;;;;2.75;2.53;;;17.40;61.70;;;;;;4992407;28;20188;-71
2022/12/06 09:20:25;;;;;;;2.40;2.20;;;17.40;61.60;;;;;;4975740;28;20185;-71
2022/12/06 09:22:51;;;;;;;2.63;2.35;;;17.50;62.40;;;;;;4975477;28;20204;-72
2022/12/06 09:25:18;;;;;;;2.85;2.55;;;17.50;61.70;;;;;;4992077;28;20251;-71
2022/12/06 09:27:44;;;;;;;2.70;2.50;;;17.50;61.60;;;;;;4975381;28;20551;-71
2022/12/06 09:30:10;;;;;;;3.15;2.65;;;17.50;61.60;;;;;;5000805;28;20241;-71
2022/12/06 09:32:35;;;;;;;2.85;2.35;;;17.50;61.60;;;;;;4999875;28;20250;-72
2022/12/06 09:35:01;;;;;;;2.50;2.30;;;17.50;61.70;;;;;;5031366;23;20236;-70
2022/12/06 09:37:27;;;;;;;3.80;2.95;;;17.50;61.60;;;;;;5027714;28;20180;-70
2022/12/06 09:40:01;;;;;;;2.88;2.60;;;17.50;61.50;;;;;;5010899;28;20187;-70
2022/12/06 09:42:48;;;;;;;3.20;2.90;;;17.50;61.60;;;;;;5013914;28;20187;-70
2022/12/06 09:45:52;;;;;;;3.05;2.60;;;17.50;61.70;;;;;;4994906;28;20243;-70
2022/12/06 09:48:27;;;;;;;2.47;2.28;;;17.50;61.60;;;;;;5011180;28;20286;-70
2022/12/06 09:51:27;;;;;;;3.67;2.80;;;17.50;61.60;;;;;;5010320;28;20639;-70
2022/12/06 09:54:32;;;;;;;4.13;3.15;;;17.50;61.60;;;;;;5003357;28;20310;-70
2022/12/06 09:57:20;;;;;;;2.65;2.40;;;17.50;61.60;;;;;;5012689;28;20180;-70
2022/12/06 10:00:19;;;;;;;2.67;2.47;;;17.50;62.40;;;;;;4995295;28;20191;-70
2022/12/06 10:03:28;;;;;;;3.42;3.10;;;17.50;61.60;;;;;;5011497;28;20270;-70
2022/12/06 10:06:01;;;;;;;2.53;2.33;;;17.50;61.60;;;;;;5011760;28;20278;-70
2022/12/06 10:08:51;;;;;;;3.15;2.85;;;17.50;61.60;;;;;;4995482;28;20188;-70
2022/12/06 10:11:24;;;;;;;3.47;3.17;;;17.50;61.50;;;;;;5011294;28;20180;-70
2022/12/06 10:14:30;;;;;;;3.97;2.83;;;17.40;61.50;;;;;;4991357;28;20240;-70
2022/12/06 10:17:29;;;;;;;3.38;3.08;;;17.50;61.60;;;;;;5008433;28;20187;-70
2022/12/06 10:20:04;;;;;;;3.40;3.10;;;17.50;61.50;;;;;;4991696;28;20192;-70
2022/12/06 10:22:57;;;;;;;3.00;2.70;;;17.50;61.50;;;;;;4998934;28;20188;-72
2022/12/06 10:25:44;;;;;;;3.13;2.83;;;17.50;61.60;;;;;;5003362;28;20173;-70
2022/12/06 10:28:37;;;;;;;3.47;2.92;;;17.50;61.50;;;;;;4991938;28;20177;-70
2022/12/06 10:31:23;;;;;;;3.33;3.03;;;17.50;61.50;;;;;;4991572;28;20185;-70
2022/12/06 10:34:04;;;;;;;4.00;2.85;;;17.50;61.50;;;;;;5007812;28;20240;-70
2022/12/06 10:37:00;;;;;;;3.40;3.08;;;17.50;61.50;;;;;;4990871;28;20181;-70
2022/12/06 10:40:02;;;;;;;3.20;3.00;;;17.50;61.50;;;;;;5020553;28;20219;-70
2022/12/06 10:42:49;;;;;;;3.58;3.25;;;17.50;61.50;;;;;;5011127;28;20191;-70
2022/12/06 10:48:15;;;;;;;3.28;2.97;;;17.50;61.90;;;;;;5012246;28;20211;-70
2022/12/06 10:50:45;;;;;;;3.65;2.80;;;17.50;61.90;;;;;;4992474;28;20169;-70
2022/12/06 10:53:16;;;;;;;3.70;2.88;;;17.50;61.70;;;;;;4991311;28;20276;-68
2022/12/06 10:55:55;;;;;;;2.70;2.50;;;17.50;61.80;;;;;;5009834;28;20176;-70
2022/12/06 10:58:44;;;;;;;2.80;2.50;;;17.50;61.90;;;;;;4991316;28;20276;-69
2022/12/06 11:01:22;;;;;;;3.00;2.70;;;17.50;61.80;;;;;;5007795;28;20181;-70
2022/12/06 11:04:13;;;;;;;3.08;2.78;;;17.50;61.80;;;;;;5007402;28;20207;-70
2022/12/06 11:07:09;;;;;;;2.97;2.72;;;17.50;61.80;;;;;;5014863;28;20180;-70
2022/12/06 11:09:42;;;;;;;4.80;2.78;;;17.50;61.80;;;;;;4990420;28;20255;-70
2022/12/06 11:12:33;;;;;;;2.90;2.60;;;17.50;61.80;;;;;;5011147;28;20259;-70
2022/12/06 11:15:25;;;;;;;3.17;2.53;;;17.50;61.80;;;;;;4998616;28;20310;-70
2022/12/06 11:18:16;;;;;;;2.70;2.50;;;17.50;61.80;;;;;;4995977;28;20672;-70
2022/12/06 11:21:23;;;;;;;2.72;2.53;;;17.50;61.80;;;;;;4998518;28;20181;-70
2022/12/06 11:23:58;;;;;;;2.83;2.63;;;17.50;61.80;;;;;;5010927;28;20211;-70
2022/12/06 11:26:48;;;;;;;3.35;2.55;;;17.50;61.80;;;;;;4994636;28;20215;-70
2022/12/06 11:29:15;;;;;;;2.80;2.40;;;17.50;61.70;;;;;;5003500;28;20176;-70
2022/12/06 11:31:51;;;;;;;2.40;2.20;;;17.50;61.80;;;;;;5014008;28;20275;-70
2022/12/06 11:34:36;;;;;;;3.15;2.85;;;17.50;61.70;;;;;;5014112;28;20273;-70
2022/12/06 11:37:05;;;;;;;2.70;2.50;;;17.50;61.70;;;;;;5014217;28;20192;-70
2022/12/06 11:39:32;;;;;;;2.80;2.33;;;17.50;61.80;;;;;;5013553;28;20181;-70
2022/12/06 11:42:03;;;;;;;2.80;2.50;;;17.50;61.80;;;;;;5011894;28;20648;-70
2022/12/06 11:45:15;;;;;;;3.15;2.70;;;17.50;61.80;;;;;;4997975;28;20208;-70
2022/12/06 11:47:41;;;;;;;2.28;2.15;;;17.50;61.70;;;;;;5004257;28;20210;-70
2022/12/06 11:50:17;;;;;;;3.33;2.47;;;17.50;61.70;;;;;;5024464;28;20180;-70
2022/12/06 11:53:02;;;;;;;2.83;2.30;;;17.50;61.70;;;;;;5013810;28;20176;-70
2022/12/06 11:55:36;;;;;;;2.50;2.30;;;17.50;61.70;;;;;;4997607;28;20208;-70
2022/12/06 11:58:17;;;;;;;2.67;2.47;;;17.50;61.70;;;;;;5009930;28;20319;-70
2022/12/06 12:01:13;;;;;;;2.47;2.28;;;17.50;61.70;;;;;;4997112;28;20184;-70
2022/12/06 12:03:43;;;;;;;2.22;2.03;;;17.50;61.70;;;;;;5010754;28;20266;-70
2022/12/06 12:06:20;;;;;;;3.65;2.30;;;17.50;61.80;;;;;;4993788;28;20211;-70
2022/12/06 12:09:03;;;;;;;2.28;2.08;;;17.50;61.80;;;;;;5010252;28;20180;-70
2022/12/06 12:11:34;;;;;;;2.10;2.00;;;17.50;61.80;;;;;;5010034;28;20207;-70
2022/12/06 12:14:06;;;;;;;2.35;2.15;;;17.50;61.70;;;;;;4996910;28;20203;-70
2022/12/06 12:16:41;;;;;;;2.13;1.92;;;17.50;61.70;;;;;;4990689;28;20189;-70
2022/12/06 12:19:31;;;;;;;2.75;2.10;;;17.50;61.60;;;;;;4993481;28;20200;-70
2022/12/06 12:22:11;;;;;;;2.22;2.03;;;17.50;61.70;;;;;;5009546;28;20188;-70
2022/12/06 12:24:57;;;;;;;2.47;2.10;;;17.50;61.80;;;;;;5009954;28;21330;-70
2022/12/06 12:27:37;;;;;;;2.47;2.28;;;17.50;61.70;;;;;;4993850;28;20259;-72
2022/12/06 12:30:54;;;;;;;2.35;2.10;;;17.50;61.70;;;;;;5007730;28;20208;-69
2022/12/06 12:33:22;;;;;;;2.55;2.35;;;17.60;61.70;;;;;;4922250;29;20309;-69
2022/12/06 12:36:02;;;;;;;1.80;1.70;;;17.60;61.80;;;;;;4990236;28;20200;-69
2022/12/06 12:38:48;;;;;;;3.38;1.92;;;17.60;62.10;;;;;;5029546;28;20226;-69
2022/12/06 12:41:41;;;;;;;4.15;2.33;;;17.60;62.30;;;;;;4993304;28;20193;-70
2022/12/06 12:44:30;;;;;;;2.95;2.00;;;17.70;62.90;;;;;;4993529;28;20300;-69
2022/12/06 12:46:59;;;;;;;1.98;1.85;;;17.70;62.80;;;;;;4977389;28;20177;-69
2022/12/06 12:49:37;;;;;;;2.90;2.00;;;17.60;62.70;;;;;;4993360;28;20189;-69
2022/12/06 12:52:35;;;;;;;2.75;1.98;;;17.60;62.70;;;;;;4993103;28;20227;-70
2022/12/06 12:55:32;;;;;;;2.03;1.80;;;17.60;62.70;;;;;;4994177;28;20219;-69
2022/12/06 12:57:59;;;;;;;2.08;1.88;;;17.60;62.70;;;;;;5012695;28;20180;-70
2022/12/06 13:00:37;;;;;;;3.45;2.30;;;17.60;62.60;;;;;;5012773;28;20169;-70
2022/12/06 13:03:16;;;;;;;2.25;1.90;;;17.60;62.60;;;;;;5013701;28;20175;-70
2022/12/06 13:05:46;;;;;;;2.08;1.98;;;17.60;62.70;;;;;;5012372;28;20241;-69
2022/12/06 13:08:23;;;;;;;2.20;2.00;;;17.60;62.60;;;;;;5012298;28;20188;-69
2022/12/06 13:10:54;;;;;;;2.05;1.85;;;17.60;62.50;;;;;;5012119;28;20191;-69
2022/12/06 13:13:43;;;;;;;2.17;1.98;;;17.60;62.50;;;;;;5012168;28;20763;-69
2022/12/06 13:16:31;;;;;;;2.10;1.90;;;17.60;62.50;;;;;;5013747;28;20552;-69
2022/12/06 13:18:58;;;;;;;2.50;2.30;;;17.60;62.50;;;;;;5028541;28;20188;-70
2022/12/06 13:21:36;;;;;;;2.63;2.10;;;17.60;62.50;;;;;;5019655;28;20231;-69
2022/12/06 13:24:11;;;;;;;1.98;1.85;;;17.60;62.40;;;;;;5006670;28;20204;-69
2022/12/06 13:26:54;;;;;;;2.20;2.00;;;17.60;62.40;;;;;;4991860;28;20192;-69
2022/12/06 13:29:31;;;;;;;1.90;1.80;;;17.60;62.30;;;;;;4992545;28;20235;-70
2022/12/06 13:32:05;;;;;;;2.20;2.00;;;17.60;62.40;;;;;;4993248;28;20246;-70
2022/12/06 13:34:39;;;;;;;2.30;1.92;;;17.60;62.30;;;;;;5009851;28;20216;-70
2022/12/06 13:37:42;;;;;;;1.90;1.80;;;17.60;62.30;;;;;;5008752;28;20180;-70
2022/12/06 13:40:46;;;;;;;2.15;1.98;;;17.60;62.30;;;;;;4989527;28;20200;-70
2022/12/06 13:43:24;;;;;;;1.80;1.70;;;17.60;62.30;;;;;;4992120;28;20184;-70
2022/12/06 13:46:25;;;;;;;1.80;1.63;;;17.60;62.30;;;;;;4998560;28;20241;-69
2022/12/06 13:48:56;;;;;;;2.15;1.95;;;17.60;62.30;;;;;;4990593;28;20189;-70
2022/12/06 13:51:31;;;;;;;1.75;1.65;;;17.60;62.30;;;;;;4992117;28;20192;-69